Ramsey, South Dakota
Current Conditions -  °F | °C
As of 7:55 PM on Friday 21 Nov 2014 (Local Time) from KMDS Reporting Station
Overcast Overcast  
Wind Chill: 23°   Ceiling: 10000
Heat Index: 32°   Visibility: 10mi
Dew Point: 32°   Wind: 12mph
Humidity: 100%   Direction: 200°SSW
Pressure: 29.85"   Gusts: NA
Location:  43.7174°N, 97.1892°W
Report Text: KMDS 220155Z AUTO 20010KT 10SM BKN100 OVC120 00/00 A2985 RMK AO2
Loading
Personal Weather Stations






























Interactive Weather Map New forecast layout! Learn more

10-Day Weather Forecast

Advertisements
Track Severe Weather on mobile